createdAt,value
2022-12-25T00:01:11.903Z,78.83
2022-12-25T00:03:54.802Z,78.71
2022-12-25T00:06:39.035Z,78.71
2022-12-25T00:09:21.820Z,78.58
2022-12-25T00:12:04.806Z,78.33
2022-12-25T00:14:47.722Z,78.61
2022-12-25T00:17:30.565Z,78.75
2022-12-25T00:20:13.444Z,79.02
2022-12-25T00:22:57.797Z,78.95
2022-12-25T00:25:40.793Z,78.93
2022-12-25T00:28:24.786Z,79.03
2022-12-25T00:31:08.375Z,79.13
2022-12-25T00:33:52.856Z,79.07
2022-12-25T00:36:41.359Z,79.03
2022-12-25T00:39:26.122Z,78.79
2022-12-25T00:42:23.904Z,78.94
2022-12-25T00:45:07.458Z,78.79
2022-12-25T00:47:50.249Z,78.83
2022-12-25T00:50:33.052Z,78.90
2022-12-25T00:53:15.860Z,78.72
2022-12-25T00:56:01.745Z,78.73
2022-12-25T00:58:44.663Z,78.71
2022-12-25T01:01:27.559Z,78.89
2022-12-25T01:04:12.002Z,79.20
2022-12-25T01:06:54.740Z,79.12
2022-12-25T01:09:51.465Z,79.02
2022-12-25T01:12:38.940Z,79.03
2022-12-25T01:15:22.160Z,78.94
2022-12-25T01:18:07.887Z,79.03
2022-12-25T01:20:51.852Z,79.21
2022-12-25T01:23:34.668Z,79.19
2022-12-25T01:26:18.400Z,79.22
2022-12-25T01:29:02.549Z,79.31
2022-12-25T01:31:45.511Z,79.18
2022-12-25T01:34:28.447Z,79.21
2022-12-25T01:37:11.895Z,79.29
2022-12-25T01:39:54.796Z,79.32
2022-12-25T01:42:37.748Z,79.32
2022-12-25T01:45:39.678Z,79.58
2022-12-25T01:48:27.121Z,79.48
2022-12-25T01:51:22.580Z,79.51
2022-12-25T01:54:09.757Z,79.60
2022-12-25T01:56:54.927Z,79.58
2022-12-25T01:59:37.791Z,79.60
2022-12-25T02:02:22.429Z,79.73
2022-12-25T02:05:27.847Z,79.81
2022-12-25T02:08:12.950Z,79.79
2022-12-25T02:10:55.747Z,79.67
2022-12-25T02:13:38.582Z,79.68
2022-12-25T02:16:26.608Z,79.84
2022-12-25T02:19:24.008Z,79.79
2022-12-25T02:22:17.084Z,79.84
2022-12-25T02:25:18.997Z,79.78
2022-12-25T02:28:14.669Z,79.87
2022-12-25T02:31:04.975Z,79.90
2022-12-25T02:34:05.517Z,79.54
2022-12-25T02:36:53.803Z,79.63
2022-12-25T02:40:00.603Z,79.70
2022-12-25T02:43:06.599Z,79.76
2022-12-25T02:46:12.310Z,79.69
2022-12-25T02:49:16.066Z,79.79
2022-12-25T02:52:20.600Z,79.78
2022-12-25T02:55:28.345Z,79.60
2022-12-25T02:58:32.486Z,79.73
2022-12-25T03:01:38.329Z,79.54
2022-12-25T03:04:42.289Z,79.62
2022-12-25T03:07:27.081Z,79.60
2022-12-25T03:10:30.115Z,79.74
2022-12-25T03:13:17.452Z,79.70
2022-12-25T03:16:17.559Z,79.80
2022-12-25T03:19:23.985Z,79.83
2022-12-25T03:22:27.081Z,79.69
2022-12-25T03:25:28.911Z,79.80
2022-12-25T03:28:11.677Z,79.79
2022-12-25T03:31:13.007Z,79.59
2022-12-25T03:34:50.833Z,79.80
2022-12-25T03:38:13.936Z,79.86
2022-12-25T03:41:19.687Z,80.16
2022-12-25T03:44:28.905Z,80.11
2022-12-25T03:47:36.750Z,80.05
2022-12-25T03:50:44.612Z,80.04
2022-12-25T03:53:47.700Z,80.28
2022-12-25T03:56:50.458Z,80.16
2022-12-25T03:59:50.562Z,80.37
2022-12-25T04:02:51.068Z,80.23
2022-12-25T04:05:52.676Z,80.29
2022-12-25T04:08:52.822Z,80.55
2022-12-25T04:11:58.816Z,80.72
2022-12-25T04:15:02.251Z,80.77
2022-12-25T04:18:02.636Z,80.94
2022-12-25T04:21:04.227Z,81.40
2022-12-25T04:24:04.547Z,81.49
2022-12-25T04:27:05.005Z,81.83
2022-12-25T04:30:13.745Z,81.62
2022-12-25T04:33:15.922Z,81.32
2022-12-25T04:36:12.321Z,81.33
2022-12-25T04:38:55.189Z,80.99
2022-12-25T04:41:37.980Z,81.04
2022-12-25T04:44:20.738Z,80.98
2022-12-25T04:47:09.182Z,80.81
2022-12-25T04:49:53.869Z,80.69
2022-12-25T04:52:39.077Z,81.05
2022-12-25T04:55:21.952Z,80.94
2022-12-25T04:58:04.751Z,80.92
2022-12-25T05:00:47.566Z,81.20
2022-12-25T05:03:31.393Z,81.37
2022-12-25T05:06:14.249Z,81.16
2022-12-25T05:08:58.912Z,81.41
2022-12-25T05:11:41.654Z,81.63
2022-12-25T05:14:24.592Z,81.69
2022-12-25T05:17:08.266Z,81.78
2022-12-25T05:19:51.010Z,81.66
2022-12-25T05:22:34.081Z,81.92
2022-12-25T05:25:18.204Z,82.49
2022-12-25T05:28:01.059Z,82.11
2022-12-25T05:30:44.121Z,82.25
2022-12-25T05:33:26.993Z,82.69
2022-12-25T05:36:11.975Z,82.73
2022-12-25T05:38:55.088Z,82.45
2022-12-25T05:41:39.289Z,82.45
2022-12-25T05:44:22.267Z,82.62
2022-12-25T05:47:05.156Z,84.11
2022-12-25T05:49:48.006Z,84.19
2022-12-25T05:52:33.155Z,83.55
2022-12-25T05:55:16.035Z,83.22
2022-12-25T05:58:00.210Z,82.94
2022-12-25T06:00:45.340Z,82.47
2022-12-25T06:03:28.834Z,82.35
2022-12-25T06:06:12.568Z,82.57
2022-12-25T06:08:55.964Z,82.43
2022-12-25T06:11:38.758Z,82.30
2022-12-25T06:14:22.906Z,82.20
2022-12-25T06:17:05.750Z,82.20
2022-12-25T06:19:48.559Z,82.07
2022-12-25T06:22:32.164Z,81.99
2022-12-25T06:25:15.117Z,82.03
2022-12-25T06:27:57.943Z,82.12
2022-12-25T06:30:42.059Z,82.21
2022-12-25T06:33:24.916Z,82.09
2022-12-25T06:36:09.242Z,82.03
2022-12-25T06:38:52.640Z,82.64
2022-12-25T06:41:35.449Z,83.60
2022-12-25T06:44:18.248Z,83.15
2022-12-25T06:47:02.397Z,82.95
2022-12-25T06:49:45.243Z,82.52
2022-12-25T06:52:28.013Z,82.61
2022-12-25T06:55:11.156Z,82.43
2022-12-25T06:57:53.956Z,82.44
2022-12-25T07:00:36.894Z,82.18
2022-12-25T07:03:23.109Z,82.22
2022-12-25T07:06:06.202Z,82.67
2022-12-25T07:08:49.014Z,82.69
2022-12-25T07:11:32.253Z,82.76
2022-12-25T07:14:23.454Z,82.72
2022-12-25T07:17:07.148Z,82.62
2022-12-25T07:19:51.500Z,82.66
2022-12-25T07:22:34.296Z,82.77
2022-12-25T07:25:17.292Z,82.99
2022-12-25T07:28:00.105Z,83.10
2022-12-25T07:30:42.944Z,82.93
2022-12-25T07:33:25.781Z,82.97
2022-12-25T07:36:12.937Z,82.66
2022-12-25T07:38:56.157Z,82.73
2022-12-25T07:41:39.019Z,82.74
2022-12-25T07:44:30.827Z,83.18
2022-12-25T07:47:15.727Z,83.47
2022-12-25T07:49:58.525Z,83.28
2022-12-25T07:52:43.954Z,83.61
2022-12-25T07:55:26.864Z,84.37
2022-12-25T07:58:09.637Z,84.65
2022-12-25T08:00:52.681Z,84.94
2022-12-25T08:03:36.274Z,84.73
2022-12-25T08:06:19.619Z,84.39
2022-12-25T08:09:06.492Z,84.66
2022-12-25T08:11:49.279Z,84.69
2022-12-25T08:14:32.085Z,84.93
2022-12-25T08:17:14.919Z,84.77
2022-12-25T08:19:57.816Z,84.75
2022-12-25T08:22:40.625Z,84.45
2022-12-25T08:25:24.779Z,84.09
2022-12-25T08:28:07.662Z,83.90
2022-12-25T08:30:50.497Z,83.92
2022-12-25T08:33:33.293Z,84.07
2022-12-25T08:36:16.694Z,84.10
2022-12-25T08:39:02.963Z,83.67
2022-12-25T08:41:47.643Z,83.47
2022-12-25T08:44:30.436Z,83.10
2022-12-25T08:47:13.223Z,82.68
2022-12-25T08:49:55.987Z,82.68
2022-12-25T08:52:38.781Z,82.52
2022-12-25T08:55:21.591Z,82.25
2022-12-25T08:58:05.868Z,82.24
2022-12-25T09:00:49.807Z,82.38
2022-12-25T09:03:33.131Z,82.74
2022-12-25T09:06:17.553Z,82.71
2022-12-25T09:09:00.328Z,82.64
2022-12-25T09:11:43.131Z,82.94
2022-12-25T09:14:27.241Z,82.62
2022-12-25T09:17:10.196Z,82.68
2022-12-25T09:19:53.002Z,82.38
2022-12-25T09:22:35.795Z,82.42
2022-12-25T09:25:18.804Z,82.31
2022-12-25T09:28:01.564Z,82.31
2022-12-25T09:30:45.827Z,81.98
2022-12-25T09:33:28.666Z,82.08
2022-12-25T09:36:11.921Z,82.36
2022-12-25T09:38:54.775Z,82.01
2022-12-25T09:41:46.941Z,81.79
2022-12-25T09:44:34.899Z,81.93
2022-12-25T09:47:23.358Z,82.10
2022-12-25T09:50:12.518Z,81.69
2022-12-25T09:53:01.810Z,81.94
2022-12-25T09:55:50.687Z,81.42
2022-12-25T09:58:35.005Z,81.19
2022-12-25T10:01:27.343Z,80.96
2022-12-25T10:04:25.703Z,80.61
2022-12-25T10:07:18.834Z,80.34
2022-12-25T10:10:16.154Z,80.18
2022-12-25T10:13:08.594Z,80.21
2022-12-25T10:16:00.377Z,80.19
2022-12-25T10:18:55.615Z,79.94
2022-12-25T10:21:40.073Z,79.28
2022-12-25T10:24:34.152Z,79.52
2022-12-25T10:27:20.771Z,79.13
2022-12-25T10:30:15.448Z,76.88
2022-12-25T10:32:59.380Z,78.22
2022-12-25T10:35:42.896Z,78.46
2022-12-25T10:38:27.071Z,77.29
2022-12-25T10:41:19.973Z,77.42
2022-12-25T10:44:13.993Z,76.89
2022-12-25T10:46:58.560Z,76.24
2022-12-25T10:49:41.538Z,76.28
2022-12-25T10:52:26.341Z,74.94
2022-12-25T10:55:14.512Z,75.25
2022-12-25T10:57:58.622Z,74.60
2022-12-25T11:00:41.508Z,73.84
2022-12-25T11:03:26.665Z,73.75
2022-12-25T11:06:24.349Z,72.41
2022-12-25T11:09:07.768Z,71.76
2022-12-25T11:11:52.019Z,72.14
2022-12-25T11:14:34.907Z,72.36
2022-12-25T11:17:22.281Z,71.26
2022-12-25T11:20:18.102Z,71.35
2022-12-25T11:23:00.935Z,72.33
2022-12-25T11:25:43.727Z,72.08
2022-12-25T11:28:30.313Z,72.47
2022-12-25T11:31:16.222Z,72.61
2022-12-25T11:34:06.244Z,71.78
2022-12-25T11:36:50.935Z,71.48
2022-12-25T11:39:35.209Z,68.90
2022-12-25T11:42:23.678Z,71.16
2022-12-25T11:45:12.820Z,71.35
2022-12-25T11:47:58.788Z,71.60
2022-12-25T11:50:45.861Z,71.38
2022-12-25T11:53:32.768Z,71.87
2022-12-25T11:56:19.953Z,70.81
2022-12-25T11:59:12.482Z,70.63
2022-12-25T12:02:03.701Z,71.24
2022-12-25T12:04:51.952Z,70.51
2022-12-25T12:07:36.406Z,70.88
2022-12-25T12:10:22.723Z,70.97
2022-12-25T12:13:29.675Z,70.29
2022-12-25T12:16:12.824Z,70.69
2022-12-25T12:18:57.097Z,70.28
2022-12-25T12:21:44.116Z,69.89
2022-12-25T12:24:30.895Z,69.87
2022-12-25T12:27:24.354Z,69.31
2022-12-25T12:30:24.729Z,69.10
2022-12-25T12:33:08.954Z,69.53
2022-12-25T12:35:53.727Z,69.42
2022-12-25T12:38:37.175Z,69.76
2022-12-25T12:41:22.008Z,69.86
2022-12-25T12:44:07.609Z,69.92
2022-12-25T12:46:55.290Z,69.96
2022-12-25T12:49:38.129Z,69.82
2022-12-25T12:52:25.564Z,69.98
2022-12-25T12:55:13.088Z,69.94
2022-12-25T12:58:00.142Z,69.88
2022-12-25T13:00:50.784Z,69.07
2022-12-25T13:04:00.157Z,69.00
2022-12-25T13:06:47.340Z,68.92
2022-12-25T13:09:44.279Z,68.81
2022-12-25T13:12:27.365Z,68.81
2022-12-25T13:15:14.321Z,68.62
2022-12-25T13:18:01.727Z,67.27
2022-12-25T13:20:54.787Z,67.09
2022-12-25T13:23:39.128Z,67.52
2022-12-25T13:26:23.843Z,67.49
2022-12-25T13:29:11.263Z,66.73
2022-12-25T13:31:54.565Z,67.12
2022-12-25T13:34:39.589Z,67.05
2022-12-25T13:37:24.928Z,67.29
2022-12-25T13:40:19.047Z,67.28
2022-12-25T13:43:02.395Z,67.47
2022-12-25T13:45:55.181Z,67.40
2022-12-25T13:48:38.039Z,67.83
2022-12-25T13:51:21.638Z,68.05
2022-12-25T13:54:05.481Z,68.22
2022-12-25T13:56:51.458Z,68.16
2022-12-25T13:59:38.263Z,68.52
2022-12-25T14:02:25.113Z,68.06
2022-12-25T14:05:25.265Z,68.02
2022-12-25T14:08:15.688Z,67.78
2022-12-25T14:10:59.532Z,67.77
2022-12-25T14:13:45.180Z,67.75
2022-12-25T14:16:29.920Z,67.81
2022-12-25T14:19:23.483Z,67.04
2022-12-25T14:22:11.308Z,67.61
2022-12-25T14:24:54.616Z,67.71
2022-12-25T14:27:38.164Z,67.90
2022-12-25T14:30:21.152Z,67.84
2022-12-25T14:33:07.578Z,67.98
2022-12-25T14:35:51.987Z,68.15
2022-12-25T14:38:35.866Z,68.02
2022-12-25T14:41:33.571Z,67.96
2022-12-25T14:44:31.942Z,68.18
2022-12-25T14:47:18.068Z,68.41
2022-12-25T14:50:02.571Z,68.46
2022-12-25T14:52:46.440Z,68.72
2022-12-25T14:55:30.963Z,68.62
2022-12-25T14:58:22.418Z,68.65
2022-12-25T15:01:06.621Z,68.82
2022-12-25T15:03:50.840Z,68.97
2022-12-25T15:06:35.171Z,69.09
2022-12-25T15:09:19.104Z,69.08
2022-12-25T15:12:01.928Z,69.07
2022-12-25T15:14:44.761Z,69.12
2022-12-25T15:17:29.933Z,69.32
2022-12-25T15:20:14.196Z,69.33
2022-12-25T15:23:19.444Z,69.29
2022-12-25T15:26:02.865Z,69.60
2022-12-25T15:28:45.672Z,69.59
2022-12-25T15:31:30.238Z,69.74
2022-12-25T15:34:16.930Z,69.82
2022-12-25T15:36:59.721Z,69.86
2022-12-25T15:39:44.263Z,69.94
2022-12-25T15:42:27.584Z,69.99
2022-12-25T15:45:21.252Z,70.18
2022-12-25T15:48:04.054Z,70.07
2022-12-25T15:50:46.946Z,70.25
2022-12-25T15:53:29.736Z,70.28
2022-12-25T15:56:14.203Z,70.36
2022-12-25T15:58:57.196Z,70.62
2022-12-25T16:01:42.482Z,70.48
2022-12-25T16:04:27.922Z,71.08
2022-12-25T16:07:15.277Z,71.88
2022-12-25T16:09:58.043Z,71.30
2022-12-25T16:12:42.266Z,71.21
2022-12-25T16:15:25.135Z,72.26
2022-12-25T16:18:08.171Z,72.44
2022-12-25T16:20:51.183Z,72.13
2022-12-25T16:23:33.978Z,72.44
2022-12-25T16:26:17.964Z,73.21
2022-12-25T16:29:07.003Z,73.80
2022-12-25T16:31:50.426Z,73.34
2022-12-25T16:34:33.222Z,73.65
2022-12-25T16:37:16.050Z,72.89
2022-12-25T16:39:58.830Z,72.52
2022-12-25T16:42:41.739Z,72.59
2022-12-25T16:45:25.892Z,73.38
2022-12-25T16:48:08.852Z,73.89
2022-12-25T16:50:51.655Z,73.94
2022-12-25T16:53:34.565Z,73.11
2022-12-25T16:56:20.545Z,72.81
2022-12-25T16:59:03.663Z,72.62
2022-12-25T17:01:47.983Z,72.47
2022-12-25T17:04:31.096Z,72.31
2022-12-25T17:07:15.342Z,72.42
2022-12-25T17:09:58.286Z,72.49
2022-12-25T17:12:41.410Z,72.26
2022-12-25T17:15:24.221Z,72.50
2022-12-25T17:18:08.361Z,72.99
2022-12-25T17:20:52.404Z,72.89
2022-12-25T17:23:35.248Z,72.76
2022-12-25T17:26:18.168Z,72.57
2022-12-25T17:29:01.241Z,72.50
2022-12-25T17:31:44.143Z,72.30
2022-12-25T17:34:28.513Z,71.99
2022-12-25T17:37:11.316Z,72.03
2022-12-25T17:39:54.138Z,72.22
2022-12-25T17:42:36.942Z,72.22
2022-12-25T17:45:19.816Z,72.17
2022-12-25T17:48:02.607Z,71.93
2022-12-25T17:50:47.366Z,71.66
2022-12-25T17:53:30.363Z,71.87
2022-12-25T17:56:14.168Z,71.54
2022-12-25T17:59:00.024Z,71.51
2022-12-25T18:01:42.892Z,71.55
2022-12-25T18:04:25.863Z,72.16
2022-12-25T18:07:10.089Z,71.78
2022-12-25T18:09:52.874Z,71.54
2022-12-25T18:12:35.729Z,71.48
2022-12-25T18:15:18.607Z,71.50
2022-12-25T18:18:01.418Z,71.60
2022-12-25T18:20:44.224Z,71.40
2022-12-25T18:23:28.980Z,71.64
2022-12-25T18:26:12.871Z,71.25
2022-12-25T18:28:56.071Z,70.97
2022-12-25T18:31:38.964Z,71.42
2022-12-25T18:34:21.807Z,71.03
2022-12-25T18:37:05.317Z,70.90
2022-12-25T18:39:49.563Z,70.92
2022-12-25T18:42:41.327Z,70.92
2022-12-25T18:45:24.280Z,71.63
2022-12-25T18:48:07.804Z,71.48
2022-12-25T18:50:57.482Z,71.52
2022-12-25T18:53:40.654Z,71.48
2022-12-25T18:56:24.825Z,71.26
2022-12-25T18:59:07.623Z,71.11
2022-12-25T19:01:50.633Z,71.28
2022-12-25T19:04:33.534Z,71.01
2022-12-25T19:07:16.403Z,70.87
2022-12-25T19:09:59.232Z,70.73
2022-12-25T19:12:43.402Z,70.58
2022-12-25T19:15:26.244Z,70.51
2022-12-25T19:18:09.217Z,70.33
2022-12-25T19:20:51.997Z,70.44
2022-12-25T19:23:34.872Z,70.29
2022-12-25T19:26:17.637Z,70.30
2022-12-25T19:29:01.807Z,70.21
2022-12-25T19:31:45.118Z,70.27
2022-12-25T19:34:27.986Z,70.13
2022-12-25T19:37:10.879Z,70.09
2022-12-25T19:39:53.699Z,70.24
2022-12-25T19:42:36.557Z,70.19
2022-12-25T19:45:21.562Z,70.15
2022-12-25T19:48:04.861Z,70.33
2022-12-25T19:50:47.690Z,70.22
2022-12-25T19:53:31.521Z,70.28
2022-12-25T19:56:14.795Z,70.31
2022-12-25T19:58:58.435Z,70.25
2022-12-25T20:01:43.170Z,69.98
2022-12-25T20:04:26.165Z,70.00
2022-12-25T20:07:08.953Z,69.84
2022-12-25T20:09:51.786Z,70.17
2022-12-25T20:12:34.555Z,70.03
2022-12-25T20:15:17.599Z,70.19
2022-12-25T20:18:02.893Z,70.20
2022-12-25T20:20:46.064Z,70.11
2022-12-25T20:23:29.743Z,70.01
2022-12-25T20:26:14.043Z,69.99
2022-12-25T20:28:58.192Z,70.08
2022-12-25T20:31:40.989Z,69.79
2022-12-25T20:34:25.253Z,69.74
2022-12-25T20:37:08.099Z,69.73
2022-12-25T20:39:50.919Z,69.56
2022-12-25T20:42:33.753Z,69.37
2022-12-25T20:45:17.984Z,69.50
2022-12-25T20:48:01.143Z,69.63
2022-12-25T20:50:45.286Z,69.58
2022-12-25T20:53:28.067Z,69.71
2022-12-25T20:56:11.781Z,69.77
2022-12-25T20:58:56.049Z,69.74
2022-12-25T21:01:38.927Z,69.74
2022-12-25T21:04:21.926Z,69.72
2022-12-25T21:07:06.258Z,69.64
2022-12-25T21:09:49.074Z,69.81
2022-12-25T21:12:31.868Z,69.69
2022-12-25T21:15:15.917Z,69.79
2022-12-25T21:17:58.825Z,69.94
2022-12-25T21:20:44.271Z,70.02
2022-12-25T21:23:29.938Z,70.15
2022-12-25T21:26:13.977Z,70.07
2022-12-25T21:29:00.207Z,69.92
2022-12-25T21:31:57.036Z,70.16
2022-12-25T21:34:40.014Z,70.10
2022-12-25T21:37:22.827Z,70.10
2022-12-25T21:40:11.371Z,70.21
2022-12-25T21:42:57.225Z,70.44
2022-12-25T21:45:40.074Z,70.65
2022-12-25T21:48:22.876Z,70.71
2022-12-25T21:51:25.354Z,70.73
2022-12-25T21:54:08.753Z,72.08
2022-12-25T21:56:52.909Z,72.45
2022-12-25T21:59:35.710Z,71.66
2022-12-25T22:02:18.795Z,71.54
2022-12-25T22:05:01.818Z,72.15
2022-12-25T22:07:43.680Z,71.71
2022-12-25T22:10:26.577Z,72.04
2022-12-25T22:13:29.046Z,72.08
2022-12-25T22:16:29.726Z,72.68
2022-12-25T22:19:29.931Z,72.55
2022-12-25T22:22:13.371Z,72.19
2022-12-25T22:24:57.472Z,72.11
2022-12-25T22:27:41.719Z,72.44
2022-12-25T22:30:27.750Z,72.26
2022-12-25T22:33:10.616Z,72.37
2022-12-25T22:36:02.599Z,72.18
2022-12-25T22:38:46.337Z,72.58
2022-12-25T22:41:33.522Z,72.93
2022-12-25T22:44:17.997Z,72.66
2022-12-25T22:47:02.377Z,73.30
2022-12-25T22:49:45.469Z,73.07
2022-12-25T22:52:28.312Z,72.77
2022-12-25T22:55:11.717Z,73.08
2022-12-25T22:57:55.712Z,73.21
2022-12-25T23:00:44.279Z,73.12
2022-12-25T23:03:30.505Z,73.47
2022-12-25T23:06:13.669Z,73.50
2022-12-25T23:08:56.734Z,73.14
2022-12-25T23:11:39.897Z,73.52
2022-12-25T23:14:39.701Z,73.16
2022-12-25T23:17:40.495Z,73.13
2022-12-25T23:20:42.259Z,73.65
2022-12-25T23:23:42.736Z,74.75
2022-12-25T23:26:25.557Z,74.31
2022-12-25T23:29:26.100Z,74.05
2022-12-25T23:32:11.353Z,74.63
2022-12-25T23:34:54.338Z,74.02
2022-12-25T23:37:38.520Z,74.13
2022-12-25T23:40:21.290Z,74.01
2022-12-25T23:43:04.101Z,75.46
2022-12-25T23:45:47.057Z,74.82
2022-12-25T23:48:29.879Z,74.94
2022-12-25T23:51:12.802Z,75.48
2022-12-25T23:53:57.085Z,75.87
2022-12-25T23:56:40.700Z,75.42
2022-12-25T23:59:23.605Z,75.61
